createdAt,value
2022-10-19T00:00:50.454Z,12.30
2022-10-19T00:03:20.702Z,12.30
2022-10-19T00:05:49.958Z,12.30
2022-10-19T00:08:16.734Z,12.30
2022-10-19T00:10:43.545Z,12.30
2022-10-19T00:13:10.355Z,12.30
2022-10-19T00:15:40.509Z,12.30
2022-10-19T00:18:08.339Z,12.20
2022-10-19T00:20:36.405Z,12.20
2022-10-19T00:23:03.331Z,12.20
2022-10-19T00:25:30.224Z,12.20
2022-10-19T00:27:57.112Z,12.20
2022-10-19T00:30:23.902Z,12.20
2022-10-19T00:32:50.706Z,12.10
2022-10-19T00:35:17.671Z,12.10
2022-10-19T00:37:44.436Z,12.10
2022-10-19T00:40:12.449Z,12.10
2022-10-19T00:42:39.295Z,12.10
2022-10-19T00:45:14.604Z,12.10
2022-10-19T00:47:41.791Z,12.10
2022-10-19T00:50:09.241Z,12.10
2022-10-19T00:52:36.461Z,12.00
2022-10-19T00:55:03.531Z,12.00
2022-10-19T00:57:30.681Z,12.00
2022-10-19T00:59:57.474Z,12.00
2022-10-19T01:02:24.568Z,12.00
2022-10-19T01:04:52.116Z,12.00
2022-10-19T01:07:19.305Z,12.00
2022-10-19T01:09:46.151Z,12.00
2022-10-19T01:13:06.590Z,12.00
2022-10-19T01:18:42.528Z,12.00
2022-10-19T01:21:17.205Z,11.90
2022-10-19T01:23:53.354Z,11.90
2022-10-19T01:26:27.882Z,11.90
2022-10-19T01:29:36.630Z,11.90
2022-10-19T01:32:36.691Z,11.90
2022-10-19T01:35:27.638Z,11.90
2022-10-19T01:38:12.802Z,11.90
2022-10-19T01:40:49.345Z,11.90
2022-10-19T01:43:40.318Z,11.80
2022-10-19T01:46:19.903Z,11.90
2022-10-19T01:48:57.224Z,11.80
2022-10-19T01:51:30.664Z,11.80
2022-10-19T01:53:58.861Z,11.80
2022-10-19T01:56:26.609Z,11.80
2022-10-19T01:58:55.158Z,11.80
2022-10-19T02:01:21.983Z,11.70
2022-10-19T02:03:48.862Z,11.80
2022-10-19T02:06:15.654Z,11.70
2022-10-19T02:08:44.794Z,11.70
2022-10-19T02:11:11.615Z,11.70
2022-10-19T02:13:39.017Z,11.70
2022-10-19T02:16:07.960Z,11.70
2022-10-19T02:18:41.000Z,11.70
2022-10-19T02:21:07.900Z,11.70
2022-10-19T02:23:34.741Z,11.80
2022-10-19T02:26:01.670Z,11.70
2022-10-19T02:28:28.871Z,11.70
2022-10-19T02:30:55.869Z,11.70
2022-10-19T02:33:23.684Z,11.70
2022-10-19T02:35:50.457Z,11.60
2022-10-19T02:38:21.221Z,11.60
2022-10-19T02:41:21.962Z,11.60
2022-10-19T02:43:49.933Z,11.60
2022-10-19T02:46:43.987Z,11.60
2022-10-19T02:49:10.807Z,11.60
2022-10-19T02:51:55.081Z,11.60
2022-10-19T02:54:21.865Z,11.60
2022-10-19T02:56:48.685Z,11.50
2022-10-19T02:59:15.523Z,11.60
2022-10-19T03:01:42.338Z,11.60
2022-10-19T03:04:12.917Z,11.50
2022-10-19T03:06:39.734Z,11.60
2022-10-19T03:09:06.596Z,11.50
2022-10-19T03:11:33.988Z,11.60
2022-10-19T03:14:00.860Z,11.50
2022-10-19T03:16:27.659Z,11.50
2022-10-19T03:18:55.453Z,11.60
2022-10-19T03:21:22.312Z,11.60
2022-10-19T03:23:49.118Z,11.60
2022-10-19T03:26:16.702Z,11.50
2022-10-19T03:28:43.632Z,11.60
2022-10-19T03:31:10.531Z,11.50
2022-10-19T03:33:37.306Z,11.60
2022-10-19T03:36:15.073Z,11.60
2022-10-19T03:38:41.964Z,11.60
2022-10-19T03:41:09.028Z,11.60
2022-10-19T03:43:35.838Z,11.50
2022-10-19T03:46:02.613Z,11.50
2022-10-19T03:48:30.404Z,11.50
2022-10-19T03:51:25.946Z,11.50
2022-10-19T03:53:58.074Z,11.50
2022-10-19T03:56:26.628Z,11.50
2022-10-19T03:58:54.244Z,11.50
2022-10-19T04:01:23.902Z,11.40
2022-10-19T04:03:55.168Z,11.40
2022-10-19T04:06:24.738Z,11.40
2022-10-19T04:08:51.525Z,11.30
2022-10-19T04:11:20.881Z,11.30
2022-10-19T04:13:54.504Z,11.30
2022-10-19T04:16:21.559Z,11.30
2022-10-19T04:18:48.466Z,11.30
2022-10-19T04:21:35.471Z,11.30
2022-10-19T04:24:04.915Z,11.20
2022-10-19T04:26:31.894Z,11.20
2022-10-19T04:28:59.220Z,11.20
2022-10-19T04:31:28.071Z,11.20
2022-10-19T04:33:54.990Z,11.10
2022-10-19T04:36:21.861Z,11.10
2022-10-19T04:38:48.771Z,11.10
2022-10-19T04:41:18.138Z,11.10
2022-10-19T04:43:48.046Z,11.10
2022-10-19T04:46:18.904Z,11.10
2022-10-19T04:48:47.490Z,11.10
2022-10-19T04:51:15.853Z,11.10
2022-10-19T04:53:43.068Z,11.00
2022-10-19T04:56:20.620Z,11.10
2022-10-19T04:58:47.873Z,11.00
2022-10-19T05:01:15.822Z,11.00
2022-10-19T05:03:42.724Z,11.00
2022-10-19T05:06:10.731Z,11.00
2022-10-19T05:08:37.700Z,11.00
2022-10-19T05:11:07.415Z,11.00
2022-10-19T05:13:35.330Z,11.00
2022-10-19T05:16:03.019Z,11.00
2022-10-19T05:18:29.869Z,11.00
2022-10-19T05:21:03.628Z,11.00
2022-10-19T05:23:30.488Z,11.00
2022-10-19T05:26:20.436Z,11.00
2022-10-19T05:28:56.751Z,11.00
2022-10-19T05:31:25.196Z,10.90
2022-10-19T05:33:52.036Z,10.90
2022-10-19T05:36:20.545Z,10.90
2022-10-19T05:38:48.859Z,10.90
2022-10-19T05:41:15.915Z,10.90
2022-10-19T05:43:42.933Z,10.90
2022-10-19T05:46:14.675Z,10.90
2022-10-19T05:48:41.711Z,10.90
2022-10-19T05:51:10.150Z,10.80
2022-10-19T05:53:40.022Z,10.80
2022-10-19T05:56:08.055Z,10.80
2022-10-19T05:58:34.978Z,10.90
2022-10-19T06:01:02.149Z,10.90
2022-10-19T06:03:29.329Z,10.80
2022-10-19T06:05:56.268Z,10.80
2022-10-19T06:08:24.289Z,10.80
2022-10-19T06:10:51.322Z,10.80
2022-10-19T06:13:18.482Z,10.80
2022-10-19T06:15:45.271Z,10.80
2022-10-19T06:18:12.690Z,10.80
2022-10-19T06:20:40.694Z,10.80
2022-10-19T06:23:07.636Z,10.70
2022-10-19T06:25:36.247Z,10.70
2022-10-19T06:28:03.178Z,10.70
2022-10-19T06:30:31.029Z,10.70
2022-10-19T06:32:59.397Z,10.70
2022-10-19T06:35:26.252Z,10.70
2022-10-19T06:37:53.074Z,10.70
2022-10-19T06:40:19.941Z,10.70
2022-10-19T06:42:46.767Z,10.70
2022-10-19T06:45:13.549Z,10.70
2022-10-19T06:47:40.404Z,10.70
2022-10-19T06:50:07.587Z,10.80
2022-10-19T06:52:35.322Z,10.80
2022-10-19T06:55:02.515Z,10.80
2022-10-19T06:57:30.400Z,10.90
2022-10-19T06:59:57.193Z,10.90
2022-10-19T07:02:24.014Z,11.00
2022-10-19T07:04:50.863Z,11.10
2022-10-19T07:07:17.733Z,11.10
2022-10-19T07:09:44.574Z,11.20
2022-10-19T07:12:12.452Z,11.20
2022-10-19T07:14:39.902Z,11.30
2022-10-19T07:17:10.622Z,11.40
2022-10-19T07:19:37.651Z,11.40
2022-10-19T07:22:04.607Z,11.50
2022-10-19T07:24:31.384Z,11.60
2022-10-19T07:26:58.213Z,11.60
2022-10-19T07:29:25.258Z,11.70
2022-10-19T07:31:52.030Z,11.70
2022-10-19T07:34:18.852Z,11.80
2022-10-19T07:36:48.054Z,11.90
2022-10-19T07:39:16.990Z,12.00
2022-10-19T07:41:44.349Z,12.10
2022-10-19T07:44:14.782Z,12.20
2022-10-19T07:46:42.782Z,12.20
2022-10-19T07:49:13.251Z,12.30
2022-10-19T07:51:40.339Z,12.30
2022-10-19T07:54:07.138Z,12.40
2022-10-19T07:56:34.926Z,12.50
2022-10-19T07:59:02.759Z,12.50
2022-10-19T08:01:31.251Z,12.50
2022-10-19T08:04:49.098Z,12.40
2022-10-19T08:06:48.126Z,12.40
2022-10-19T08:09:33.413Z,12.40
2022-10-19T08:12:02.093Z,12.40
2022-10-19T08:14:28.920Z,12.40
2022-10-19T08:16:55.767Z,12.30
2022-10-19T08:19:25.502Z,12.40
2022-10-19T08:21:52.277Z,12.50
2022-10-19T08:24:20.342Z,12.60
2022-10-19T08:26:47.229Z,12.60
2022-10-19T08:29:15.597Z,12.70
2022-10-19T08:31:43.456Z,12.80
2022-10-19T08:34:10.396Z,12.80
2022-10-19T08:36:37.282Z,12.80
2022-10-19T08:39:08.125Z,12.80
2022-10-19T08:41:40.954Z,12.90
2022-10-19T08:44:16.414Z,12.90
2022-10-19T08:47:03.036Z,13.00
2022-10-19T08:49:31.945Z,13.10
2022-10-19T08:52:34.648Z,13.30
2022-10-19T08:55:15.116Z,13.40
2022-10-19T08:58:03.479Z,13.50
2022-10-19T09:00:41.358Z,13.60
2022-10-19T09:03:15.639Z,13.60
2022-10-19T09:05:49.577Z,13.70
2022-10-19T09:08:17.883Z,13.60
2022-10-19T09:10:46.170Z,13.60
2022-10-19T09:13:41.593Z,13.60
2022-10-19T09:16:21.157Z,13.70
2022-10-19T09:18:49.453Z,13.70
2022-10-19T09:21:21.548Z,13.80
2022-10-19T09:24:06.893Z,13.90
2022-10-19T09:26:36.287Z,13.90
2022-10-19T09:29:11.729Z,14.00
2022-10-19T09:31:40.631Z,14.00
2022-10-19T09:34:38.390Z,13.90
2022-10-19T09:37:05.215Z,14.10
2022-10-19T09:39:32.271Z,14.20
2022-10-19T09:42:26.087Z,14.30
2022-10-19T09:44:52.921Z,14.30
2022-10-19T09:47:28.940Z,14.40
2022-10-19T09:50:17.547Z,14.40
2022-10-19T09:52:45.787Z,14.40
2022-10-19T09:55:38.857Z,14.40
2022-10-19T09:58:13.451Z,14.50
2022-10-19T10:00:47.855Z,14.50
2022-10-19T10:03:35.451Z,14.60
2022-10-19T10:06:08.780Z,14.80
2022-10-19T10:08:50.221Z,14.70
2022-10-19T10:11:28.847Z,14.70
2022-10-19T10:13:56.001Z,14.70
2022-10-19T10:16:40.230Z,14.50
2022-10-19T10:19:08.007Z,14.50
2022-10-19T10:21:52.775Z,14.60
2022-10-19T10:24:20.805Z,14.70
2022-10-19T10:26:51.174Z,14.80
2022-10-19T10:29:23.018Z,14.80
2022-10-19T10:32:15.847Z,14.90
2022-10-19T10:34:53.802Z,15.00
2022-10-19T10:37:42.475Z,14.90
2022-10-19T10:40:26.186Z,15.00
2022-10-19T10:42:53.984Z,15.10
2022-10-19T10:45:29.725Z,15.10
2022-10-19T10:50:35.279Z,14.90
2022-10-19T10:53:06.810Z,14.80
2022-10-19T10:55:34.800Z,14.90
2022-10-19T10:58:18.320Z,15.10
2022-10-19T11:00:46.152Z,15.30
2022-10-19T11:03:23.885Z,15.30
2022-10-19T11:05:59.227Z,15.30
2022-10-19T11:08:56.859Z,15.30
2022-10-19T11:11:36.520Z,15.20
2022-10-19T11:14:30.866Z,15.10
2022-10-19T11:17:02.403Z,15.00
2022-10-19T11:19:35.365Z,15.00
2022-10-19T11:22:16.928Z,15.10
2022-10-19T11:25:14.441Z,15.10
2022-10-19T11:27:59.390Z,15.10
2022-10-19T11:30:28.274Z,15.10
2022-10-19T11:33:04.020Z,15.30
2022-10-19T11:35:58.310Z,15.40
2022-10-19T11:38:43.607Z,15.70
2022-10-19T11:41:29.459Z,15.90
2022-10-19T11:44:10.950Z,16.20
2022-10-19T11:47:13.014Z,16.20
2022-10-19T11:50:02.304Z,16.10
2022-10-19T11:52:41.690Z,16.10
2022-10-19T11:55:22.001Z,16.30
2022-10-19T11:58:05.318Z,16.20
2022-10-19T12:00:41.769Z,16.30
2022-10-19T12:03:27.650Z,16.20
2022-10-19T12:06:13.337Z,16.40
2022-10-19T12:08:56.074Z,16.40
2022-10-19T12:11:27.573Z,16.50
2022-10-19T12:13:59.833Z,16.70
2022-10-19T12:16:35.944Z,16.80
2022-10-19T12:19:02.775Z,16.60
2022-10-19T12:21:36.083Z,16.60
2022-10-19T12:24:04.203Z,16.50
2022-10-19T12:26:33.075Z,16.60
2022-10-19T12:29:00.818Z,16.70
2022-10-19T12:31:27.690Z,16.80
2022-10-19T12:34:03.485Z,16.90
2022-10-19T12:36:37.183Z,17.10
2022-10-19T12:39:07.134Z,17.30
2022-10-19T12:41:44.409Z,17.30
2022-10-19T12:44:27.041Z,17.30
2022-10-19T12:46:58.774Z,17.20
2022-10-19T12:49:30.372Z,17.20
2022-10-19T12:52:00.834Z,17.10
2022-10-19T12:54:28.906Z,17.20
2022-10-19T12:56:57.161Z,17.40
2022-10-19T12:59:34.162Z,17.30
2022-10-19T13:02:01.522Z,17.30
2022-10-19T13:04:30.372Z,17.20
2022-10-19T13:06:57.122Z,17.10
2022-10-19T13:09:34.268Z,17.10
2022-10-19T13:12:21.442Z,17.10
2022-10-19T13:14:57.064Z,17.10
2022-10-19T13:17:50.002Z,17.10
2022-10-19T13:20:16.796Z,17.10
2022-10-19T13:22:50.323Z,17.10
2022-10-19T13:25:19.814Z,17.00
2022-10-19T13:27:47.690Z,16.90
2022-10-19T13:30:36.357Z,16.80
2022-10-19T13:33:34.905Z,16.80
2022-10-19T13:36:02.534Z,16.90
2022-10-19T13:38:32.940Z,17.00
2022-10-19T13:41:14.734Z,17.00
2022-10-19T13:43:56.345Z,16.90
2022-10-19T13:46:32.171Z,16.90
2022-10-19T13:49:08.170Z,17.00
2022-10-19T13:51:54.214Z,16.80
2022-10-19T13:54:24.082Z,16.80
2022-10-19T13:57:09.469Z,16.70
2022-10-19T13:59:54.954Z,16.70
2022-10-19T14:02:53.883Z,16.60
2022-10-19T14:05:35.809Z,16.60
2022-10-19T14:08:21.483Z,16.50
2022-10-19T14:11:00.540Z,16.30
2022-10-19T14:13:45.204Z,16.20
2022-10-19T14:16:18.848Z,16.10
2022-10-19T14:18:56.230Z,16.00
2022-10-19T14:21:33.533Z,16.00
2022-10-19T14:24:00.455Z,15.90
2022-10-19T14:26:30.038Z,15.90
2022-10-19T14:28:58.809Z,15.80
2022-10-19T14:31:34.059Z,15.80
2022-10-19T14:34:02.593Z,15.80
2022-10-19T14:36:37.313Z,15.80
2022-10-19T14:39:04.608Z,15.80
2022-10-19T14:41:36.252Z,15.80
2022-10-19T14:44:33.260Z,15.80
2022-10-19T14:47:01.993Z,15.80
2022-10-19T14:49:28.964Z,15.70
2022-10-19T14:51:59.187Z,15.60
2022-10-19T14:54:37.468Z,15.60
2022-10-19T14:57:31.716Z,15.60
2022-10-19T15:00:10.719Z,15.60
2022-10-19T15:02:53.994Z,15.60
2022-10-19T15:05:22.411Z,15.70
2022-10-19T15:07:49.223Z,15.70
2022-10-19T15:10:20.221Z,15.70
2022-10-19T15:12:47.115Z,15.70
2022-10-19T15:15:20.462Z,15.70
2022-10-19T15:17:54.538Z,15.70
2022-10-19T15:20:49.351Z,15.70
2022-10-19T15:23:42.779Z,15.70
2022-10-19T15:26:30.519Z,15.70
2022-10-19T15:29:22.985Z,15.70
2022-10-19T15:31:56.453Z,15.60
2022-10-19T15:34:32.148Z,15.50
2022-10-19T15:37:01.354Z,15.60
2022-10-19T15:39:40.089Z,15.60
2022-10-19T15:42:35.746Z,15.60
2022-10-19T15:45:26.432Z,15.60
2022-10-19T15:48:24.825Z,15.50
2022-10-19T15:50:55.181Z,15.50
2022-10-19T15:53:24.314Z,15.50
2022-10-19T15:55:51.153Z,15.50
2022-10-19T15:58:18.215Z,15.50
2022-10-19T16:00:44.986Z,15.50
2022-10-19T16:03:12.842Z,15.50
2022-10-19T16:05:39.766Z,15.40
2022-10-19T16:08:10.086Z,15.50
2022-10-19T16:10:40.240Z,15.40
2022-10-19T16:13:07.095Z,15.40
2022-10-19T16:15:33.953Z,15.30
2022-10-19T16:18:00.742Z,15.30
2022-10-19T16:20:28.415Z,15.20
2022-10-19T16:22:55.287Z,15.20
2022-10-19T16:25:23.167Z,15.10
2022-10-19T16:27:50.122Z,15.10
2022-10-19T16:30:17.000Z,15.00
2022-10-19T16:32:43.780Z,14.90
2022-10-19T16:35:12.160Z,14.90
2022-10-19T16:37:41.048Z,14.90
2022-10-19T16:40:09.365Z,14.80
2022-10-19T16:42:36.376Z,14.70
2022-10-19T16:45:04.801Z,14.70
2022-10-19T16:47:32.652Z,14.70
2022-10-19T16:50:00.285Z,14.60
2022-10-19T16:52:28.130Z,14.60
2022-10-19T16:54:58.349Z,14.50
2022-10-19T16:57:25.183Z,14.50
2022-10-19T16:59:54.812Z,14.50
2022-10-19T17:02:21.875Z,14.40
2022-10-19T17:04:48.669Z,14.40
2022-10-19T17:07:15.558Z,14.40
2022-10-19T17:09:43.338Z,14.30
2022-10-19T17:12:10.432Z,14.30
2022-10-19T17:14:38.755Z,14.30
2022-10-19T17:17:05.589Z,14.20
2022-10-19T17:19:32.438Z,14.10
2022-10-19T17:21:59.672Z,14.10
2022-10-19T17:24:26.551Z,14.10
2022-10-19T17:26:53.674Z,14.10
2022-10-19T17:29:21.786Z,14.10
2022-10-19T17:31:48.726Z,14.00
2022-10-19T17:34:15.886Z,14.00
2022-10-19T17:36:47.222Z,13.90
2022-10-19T17:39:19.137Z,13.90
2022-10-19T17:41:47.520Z,13.90
2022-10-19T17:44:14.632Z,13.80
2022-10-19T17:46:41.581Z,13.80
2022-10-19T17:49:08.984Z,13.80
2022-10-19T17:51:37.131Z,13.80
2022-10-19T17:54:07.614Z,13.70
2022-10-19T17:56:34.799Z,13.70
2022-10-19T17:59:04.291Z,13.70
2022-10-19T18:01:31.214Z,13.70
2022-10-19T18:03:58.087Z,13.70
2022-10-19T18:06:35.374Z,13.60
2022-10-19T18:09:03.216Z,13.60
2022-10-19T18:11:37.000Z,13.60
2022-10-19T18:14:04.185Z,13.60
2022-10-19T18:16:32.985Z,13.50
2022-10-19T18:19:00.480Z,13.60
2022-10-19T18:21:31.967Z,13.60
2022-10-19T18:24:00.831Z,13.60
2022-10-19T18:26:29.746Z,13.50
2022-10-19T18:28:57.058Z,13.50
2022-10-19T18:31:31.642Z,13.50
2022-10-19T18:34:03.063Z,13.50
2022-10-19T18:36:30.526Z,13.50
2022-10-19T18:38:58.634Z,13.50
2022-10-19T18:41:25.681Z,13.40
2022-10-19T18:44:01.312Z,13.40
2022-10-19T18:46:28.166Z,13.40
2022-10-19T18:48:55.007Z,13.30
2022-10-19T18:51:22.363Z,13.40
2022-10-19T18:53:49.318Z,13.40
2022-10-19T18:56:17.525Z,13.30
2022-10-19T18:58:45.530Z,13.30
2022-10-19T19:01:13.990Z,13.30
2022-10-19T19:03:42.598Z,13.30
2022-10-19T19:06:11.715Z,13.20
2022-10-19T19:08:39.787Z,13.20
2022-10-19T19:11:14.265Z,13.20
2022-10-19T19:13:42.450Z,13.20
2022-10-19T19:16:09.420Z,13.20
2022-10-19T19:18:36.269Z,13.20
2022-10-19T19:21:03.944Z,13.20
2022-10-19T19:23:30.900Z,13.20
2022-10-19T19:25:57.719Z,13.20
2022-10-19T19:28:24.630Z,13.10
2022-10-19T19:30:51.457Z,13.10
2022-10-19T19:33:18.389Z,13.10
2022-10-19T19:35:46.261Z,13.10
2022-10-19T19:38:13.586Z,13.10
2022-10-19T19:40:44.702Z,13.10
2022-10-19T19:43:12.147Z,13.10
2022-10-19T19:45:39.056Z,13.00
2022-10-19T19:48:06.261Z,13.00
2022-10-19T19:50:33.278Z,13.00
2022-10-19T19:53:00.170Z,13.00
2022-10-19T19:55:27.499Z,13.00
2022-10-19T19:57:54.821Z,13.00
2022-10-19T20:00:23.025Z,13.00
2022-10-19T20:02:56.694Z,13.00
2022-10-19T20:05:23.689Z,13.00
2022-10-19T20:07:50.619Z,13.00
2022-10-19T20:10:18.171Z,12.90
2022-10-19T20:12:46.400Z,12.90
2022-10-19T20:15:14.118Z,12.90
2022-10-19T20:17:41.015Z,12.90
2022-10-19T20:20:08.573Z,12.90
2022-10-19T20:22:36.898Z,12.90
2022-10-19T20:25:04.066Z,12.90
2022-10-19T20:27:30.961Z,12.90
2022-10-19T20:29:58.623Z,12.90
2022-10-19T20:32:26.202Z,12.90
2022-10-19T20:34:53.993Z,12.90
2022-10-19T20:37:21.239Z,12.90
2022-10-19T20:39:48.306Z,12.90
2022-10-19T20:42:15.795Z,12.90
2022-10-19T20:44:43.764Z,12.90
2022-10-19T20:47:11.799Z,12.90
2022-10-19T20:49:38.681Z,12.90
2022-10-19T20:52:05.506Z,12.90
2022-10-19T20:54:32.451Z,12.80
2022-10-19T20:56:59.378Z,12.80
2022-10-19T20:59:27.855Z,12.80
2022-10-19T21:01:55.940Z,12.80
2022-10-19T21:04:23.076Z,12.80
2022-10-19T21:06:50.569Z,12.80
2022-10-19T21:09:19.194Z,12.80
2022-10-19T21:11:47.321Z,12.80
2022-10-19T21:14:28.021Z,12.80
2022-10-19T21:16:59.916Z,12.70
2022-10-19T21:19:28.090Z,12.70
2022-10-19T21:22:03.346Z,12.70
2022-10-19T21:24:32.572Z,12.70
2022-10-19T21:27:03.985Z,12.70
2022-10-19T21:29:30.913Z,12.70
2022-10-19T21:31:58.781Z,12.70
2022-10-19T21:34:29.183Z,12.70
2022-10-19T21:36:57.653Z,12.70
2022-10-19T21:39:24.486Z,12.70
2022-10-19T21:41:52.471Z,12.70
2022-10-19T21:44:22.138Z,12.70
2022-10-19T21:46:50.624Z,12.70
2022-10-19T21:49:17.582Z,12.70
2022-10-19T21:51:49.026Z,12.70
2022-10-19T21:54:17.886Z,12.70
2022-10-19T21:56:44.785Z,12.70
2022-10-19T21:59:12.202Z,12.70
2022-10-19T22:01:41.287Z,12.70
2022-10-19T22:04:10.956Z,12.70
2022-10-19T22:06:38.957Z,12.70
2022-10-19T22:09:10.231Z,12.70
2022-10-19T22:11:37.125Z,12.70
2022-10-19T22:14:06.008Z,12.70
2022-10-19T22:16:33.131Z,12.70
2022-10-19T22:18:59.955Z,12.60
2022-10-19T22:21:28.603Z,12.60
2022-10-19T22:24:00.765Z,12.70
2022-10-19T22:26:32.085Z,12.60
2022-10-19T22:29:10.791Z,12.60
2022-10-19T22:31:37.646Z,12.60
2022-10-19T22:34:06.295Z,12.60
2022-10-19T22:36:33.120Z,12.60
2022-10-19T22:39:01.068Z,12.60
2022-10-19T22:41:27.936Z,12.70
2022-10-19T22:43:54.785Z,12.70
2022-10-19T22:46:23.589Z,12.60
2022-10-19T22:48:50.342Z,12.60
2022-10-19T22:51:17.173Z,12.60
2022-10-19T22:53:44.958Z,12.60
2022-10-19T22:56:12.460Z,12.60
2022-10-19T22:58:39.578Z,12.60
2022-10-19T23:01:08.184Z,12.60
2022-10-19T23:03:35.321Z,12.60
2022-10-19T23:06:02.284Z,12.60
2022-10-19T23:08:29.135Z,12.60
2022-10-19T23:10:56.940Z,12.60
2022-10-19T23:13:23.746Z,12.60
2022-10-19T23:15:53.295Z,12.60
2022-10-19T23:18:20.106Z,12.60
2022-10-19T23:20:54.494Z,12.60
2022-10-19T23:23:21.436Z,12.60
2022-10-19T23:26:06.302Z,12.50
2022-10-19T23:28:34.252Z,12.50
2022-10-19T23:31:06.708Z,12.50
2022-10-19T23:33:33.486Z,12.50
2022-10-19T23:36:05.356Z,12.50
2022-10-19T23:38:32.350Z,12.50
2022-10-19T23:40:59.196Z,12.50
2022-10-19T23:43:26.074Z,12.50
2022-10-19T23:45:52.979Z,12.50
2022-10-19T23:48:19.820Z,12.50
2022-10-19T23:50:46.631Z,12.50
2022-10-19T23:53:13.434Z,12.50
2022-10-19T23:55:40.270Z,12.50
2022-10-19T23:58:07.212Z,12.50
